Kings Langley, United Kingdom
Current Conditions -  °F | °C
As of 12:50 PM on Tuesday 21 Oct 2014 (Local Time) from EGWU Reporting Station
Rain Showers Rain Showers  
Wind Chill: 10°   Ceiling: Unl
Heat Index: 10°   Visibility: 6mi
Dew Point:   Wind: 31mph
Humidity: 71%   Direction: 290°WNW
Pressure: 29.71"   Gusts: 47mph
Location:  51.71°N, 0.45°W
Report Text: EGWU 211150Z 29027G41KT 9999 -SHRA FEW035CB SCT040 10/05 Q1006 RESHRA BLU NOSIG
Loading
Personal Weather Stations






























Interactive Weather Map
Tropical Storm Tracking
New forecast layout! Learn more

10-Day Weather Forecast

Advertisements
Track Severe Weather on mobile